Time;durP1;ratioP1;P1;durP2;ratioP2;P2;SDS_P1;SDS_P2;PMS_P1;PMS_P2;Temp;Humidity;BMP_temperature;BMP_pressure;BME280_temperature;BME280_humidity;BME280_pressure;Samples;Min_cycle;Max_cycle;Signal;HPM_P1;HPM_P2
2024/01/07 05:02:42;;;;;;;1.40;1.30;;;-1.00;97.30;;;;;;5048475;23;20509;-94
2024/01/07 05:05:08;;;;;;;1.20;1.10;;;-1.00;97.30;;;;;;4993935;28;20509;-94
2024/01/07 05:07:34;;;;;;;1.10;1.00;;;-1.00;97.30;;;;;;4997175;28;20234;-93
2024/01/07 05:09:59;;;;;;;1.63;1.50;;;-1.10;97.30;;;;;;4998075;28;20429;-94
2024/01/07 05:12:25;;;;;;;1.40;1.30;;;-1.00;97.30;;;;;;4998154;28;20190;-94
2024/01/07 05:14:51;;;;;;;11.73;1.43;;;-1.10;97.30;;;;;;4992951;28;20258;-94
2024/01/07 05:17:17;;;;;;;1.30;1.20;;;-1.10;97.30;;;;;;4991535;28;20255;-93
2024/01/07 05:19:43;;;;;;;1.10;1.00;;;-1.10;97.30;;;;;;4994465;28;20506;-94
2024/01/07 05:22:08;;;;;;;1.30;1.20;;;-1.10;97.30;;;;;;4990394;28;20442;-94
2024/01/07 05:24:38;;;;;;;3.40;3.20;;;-1.10;97.30;;;;;;4990675;28;20389;-93
2024/01/07 05:27:03;;;;;;;1.30;1.20;;;-1.20;97.30;;;;;;4997036;28;20197;-94
2024/01/07 05:29:29;;;;;;;1.50;1.40;;;-1.20;97.30;;;;;;4992792;28;20447;-94
2024/01/07 05:31:54;;;;;;;5.03;2.53;;;-1.20;97.30;;;;;;4990252;28;20287;-94
2024/01/07 05:34:20;;;;;;;1.73;1.63;;;-1.20;97.30;;;;;;4997618;28;20202;-94
2024/01/07 05:36:45;;;;;;;1.37;1.27;;;-1.20;97.30;;;;;;4989470;28;20366;-92
2024/01/07 05:39:11;;;;;;;1.37;1.27;;;-1.20;97.30;;;;;;4993678;28;20175;-94
2024/01/07 05:41:39;;;;;;;1.20;1.10;;;-1.20;97.30;;;;;;4993629;28;20210;-94
2024/01/07 05:44:07;;;;;;;2.07;1.90;;;-1.20;97.30;;;;;;4997184;28;20214;-93
2024/01/07 05:46:33;;;;;;;2.67;2.13;;;-1.20;97.30;;;;;;4997732;28;20481;-94
2024/01/07 05:48:58;;;;;;;1.40;1.20;;;-1.20;97.30;;;;;;4996821;28;20438;-94
2024/01/07 05:51:24;;;;;;;1.60;1.50;;;-1.20;97.30;;;;;;4990256;28;20466;-93
2024/01/07 05:53:49;;;;;;;2.50;1.40;;;-1.20;97.30;;;;;;4996384;28;20182;-94
2024/01/07 05:56:15;;;;;;;1.20;1.10;;;-1.20;97.30;;;;;;4996373;28;20190;-95
2024/01/07 05:58:41;;;;;;;2.20;1.70;;;-1.20;97.30;;;;;;4989485;28;20207;-94
2024/01/07 06:01:08;;;;;;;1.50;1.40;;;-1.20;97.30;;;;;;5006502;23;20234;-89
2024/01/07 06:03:33;;;;;;;1.10;1.00;;;-1.20;97.30;;;;;;4966805;28;20183;-89
2024/01/07 06:06:00;;;;;;;8.27;3.50;;;-1.20;97.30;;;;;;4969406;28;20430;-89
2024/01/07 06:08:28;;;;;;;1.77;1.67;;;-1.20;97.30;;;;;;4965509;28;20798;-89
2024/01/07 06:10:54;;;;;;;2.60;1.53;;;-1.20;97.30;;;;;;4966702;28;20314;-88
2024/01/07 06:13:19;;;;;;;1.40;1.30;;;-1.20;97.30;;;;;;4953199;28;20510;-88
2024/01/07 06:15:45;;;;;;;2.23;2.07;;;-1.20;97.30;;;;;;4952047;28;20241;-89
2024/01/07 06:18:10;;;;;;;1.30;1.20;;;-1.20;97.30;;;;;;4952120;28;20187;-88
2024/01/07 06:20:36;;;;;;;1.10;1.00;;;-1.20;97.30;;;;;;4953596;28;20190;-88
2024/01/07 06:23:01;;;;;;;1.27;1.17;;;-1.20;97.30;;;;;;4951902;28;20233;-88
2024/01/07 06:25:27;;;;;;;2.97;2.07;;;-1.20;97.30;;;;;;4956010;28;20269;-88
2024/01/07 06:27:52;;;;;;;1.47;1.37;;;-1.20;97.30;;;;;;4954224;28;20211;-88
2024/01/07 06:30:19;;;;;;;1.23;1.13;;;-1.20;97.30;;;;;;4954404;28;20725;-88
2024/01/07 06:32:45;;;;;;;1.00;0.90;;;-1.20;97.30;;;;;;4953012;28;20294;-88
2024/01/07 06:35:11;;;;;;;1.20;1.10;;;-1.20;97.30;;;;;;4953072;28;20454;-88
2024/01/07 06:37:37;;;;;;;1.17;1.07;;;-1.20;97.30;;;;;;4954015;28;20430;-88
2024/01/07 06:40:03;;;;;;;1.10;1.00;;;-1.20;97.30;;;;;;4948878;28;20192;-88
2024/01/07 06:42:28;;;;;;;1.17;1.07;;;-1.20;97.30;;;;;;4950103;28;20317;-88
2024/01/07 06:44:54;;;;;;;1.10;1.00;;;-1.30;97.30;;;;;;4950812;28;21011;-88
2024/01/07 06:47:19;;;;;;;1.40;1.27;;;-1.30;97.30;;;;;;4950559;28;20644;-88
2024/01/07 06:49:45;;;;;;;1.40;1.30;;;-1.30;97.30;;;;;;4952775;28;20574;-88
2024/01/07 06:52:11;;;;;;;1.97;1.77;;;-1.30;97.30;;;;;;4951874;28;20211;-86
2024/01/07 06:54:36;;;;;;;1.20;1.10;;;-1.40;97.30;;;;;;4952354;28;20547;-88
2024/01/07 06:57:02;;;;;;;1.10;1.00;;;-1.40;97.30;;;;;;4951501;28;20273;-88
2024/01/07 06:59:28;;;;;;;3.53;3.33;;;-1.50;97.30;;;;;;4952946;28;20175;-88
2024/01/07 07:01:55;;;;;;;1.20;1.10;;;-1.50;97.30;;;;;;4951569;28;20485;-87
2024/01/07 07:04:20;;;;;;;1.20;1.10;;;-1.50;97.30;;;;;;4967197;28;20214;-88
2024/01/07 07:06:48;;;;;;;1.30;1.20;;;-1.50;97.30;;;;;;4951386;28;20526;-88
2024/01/07 07:09:14;;;;;;;1.20;1.10;;;-1.50;97.30;;;;;;4951892;28;20187;-88
2024/01/07 07:11:40;;;;;;;1.40;1.30;;;-1.50;97.30;;;;;;4967995;28;20443;-88
2024/01/07 07:14:06;;;;;;;1.83;1.70;;;-1.60;97.30;;;;;;4967865;28;20465;-88
2024/01/07 07:16:31;;;;;;;1.77;1.73;;;-1.60;97.30;;;;;;4953290;28;20649;-88
2024/01/07 07:18:57;;;;;;;1.20;1.10;;;-1.60;97.30;;;;;;4953287;28;20197;-88
2024/01/07 07:21:23;;;;;;;1.30;1.20;;;-1.60;97.30;;;;;;4952022;28;20191;-88
2024/01/07 07:23:48;;;;;;;1.93;1.83;;;-1.60;97.30;;;;;;4950990;28;20179;-88
2024/01/07 07:26:14;;;;;;;1.83;1.77;;;-1.60;97.30;;;;;;4968867;28;20186;-88
2024/01/07 07:28:39;;;;;;;1.30;1.20;;;-1.60;97.30;;;;;;4952247;28;20190;-88
2024/01/07 07:31:05;;;;;;;1.40;1.30;;;-1.60;97.30;;;;;;4952259;28;20199;-88
2024/01/07 07:33:30;;;;;;;1.33;1.30;;;-1.60;97.30;;;;;;4951943;28;20183;-88
2024/01/07 07:35:56;;;;;;;1.33;1.23;;;-1.60;97.30;;;;;;4952093;28;20202;-88
2024/01/07 07:38:21;;;;;;;1.30;1.20;;;-1.70;97.30;;;;;;4951077;29;20176;-88
2024/01/07 07:40:52;;;;;;;1.87;1.77;;;-1.70;97.30;;;;;;4952545;28;20215;-88
2024/01/07 07:43:19;;;;;;;1.20;1.10;;;-1.80;97.30;;;;;;4952282;28;20188;-88
2024/01/07 07:45:44;;;;;;;1.43;1.33;;;-1.80;97.30;;;;;;4953023;28;20964;-86
2024/01/07 07:48:10;;;;;;;1.53;1.43;;;-1.80;97.30;;;;;;4968121;28;20433;-88
2024/01/07 07:50:35;;;;;;;2.20;1.67;;;-1.80;97.30;;;;;;4949932;28;20662;-88
2024/01/07 07:53:01;;;;;;;1.33;1.23;;;-1.90;97.30;;;;;;4959568;28;20179;-87
2024/01/07 07:55:27;;;;;;;5.70;1.67;;;-1.90;97.30;;;;;;4955705;28;20209;-88
2024/01/07 07:57:52;;;;;;;1.47;1.37;;;-1.90;97.30;;;;;;4957750;28;20179;-88
2024/01/07 08:00:18;;;;;;;1.20;1.10;;;-1.90;97.30;;;;;;4957500;28;20234;-85
2024/01/07 08:02:44;;;;;;;5.50;3.77;;;-1.90;97.30;;;;;;4954999;28;20254;-89
2024/01/07 08:05:09;;;;;;;1.70;1.60;;;-1.90;97.30;;;;;;4954791;28;20266;-86
2024/01/07 08:07:35;;;;;;;1.20;1.10;;;-2.00;97.30;;;;;;4961211;28;20225;-85
2024/01/07 08:10:00;;;;;;;1.23;1.13;;;-2.00;97.30;;;;;;4956745;28;20685;-89
2024/01/07 08:12:26;;;;;;;1.30;1.20;;;-2.00;97.30;;;;;;4957205;28;20195;-86
2024/01/07 08:14:51;;;;;;;1.30;1.20;;;-2.00;97.30;;;;;;4981335;28;20670;-88
2024/01/07 08:17:17;;;;;;;1.67;1.20;;;-2.10;97.30;;;;;;4954259;28;20175;-88
2024/01/07 08:19:42;;;;;;;1.10;1.00;;;-2.10;97.30;;;;;;4967823;28;20188;-85
2024/01/07 08:22:09;;;;;;;1.30;1.20;;;-2.10;97.30;;;;;;4953296;28;20459;-87
2024/01/07 08:24:34;;;;;;;2.17;2.00;;;-2.10;97.30;;;;;;4955228;28;20183;-88
2024/01/07 08:27:01;;;;;;;1.30;1.20;;;-2.10;97.30;;;;;;4954800;28;20687;-85
2024/01/07 08:29:26;;;;;;;1.20;1.10;;;-2.10;97.30;;;;;;4954767;28;20187;-88
2024/01/07 08:31:52;;;;;;;1.77;1.67;;;-2.10;97.30;;;;;;4953412;28;20454;-87
2024/01/07 08:34:18;;;;;;;1.20;1.10;;;-2.10;97.30;;;;;;4952834;28;20195;-86
2024/01/07 08:36:43;;;;;;;2.13;1.97;;;-2.10;97.30;;;;;;4954015;28;20505;-88
2024/01/07 08:39:09;;;;;;;1.20;1.10;;;-2.10;97.30;;;;;;4954179;28;20191;-87
2024/01/07 08:41:34;;;;;;;5.80;2.23;;;-2.10;97.30;;;;;;4953848;28;20207;-88
2024/01/07 08:44:00;;;;;;;1.40;1.30;;;-2.10;97.30;;;;;;4955114;28;20207;-88
2024/01/07 08:46:25;;;;;;;1.40;1.30;;;-2.10;97.30;;;;;;4953851;28;20172;-88
2024/01/07 08:48:51;;;;;;;1.50;1.40;;;-2.10;97.30;;;;;;4953950;28;20184;-88
2024/01/07 08:51:16;;;;;;;4.03;2.57;;;-2.10;97.30;;;;;;4953997;28;20194;-86
2024/01/07 08:53:42;;;;;;;1.20;1.10;;;-2.10;97.30;;;;;;4956525;28;20454;-87
2024/01/07 08:56:08;;;;;;;8.57;1.40;;;-2.10;97.30;;;;;;4953223;28;20195;-87
2024/01/07 08:58:34;;;;;;;1.37;1.27;;;-2.00;97.30;;;;;;4953764;28;20194;-88
2024/01/07 09:00:59;;;;;;;1.30;1.20;;;-2.00;97.30;;;;;;4952938;28;20486;-88
2024/01/07 09:03:25;;;;;;;5.87;1.90;;;-2.00;97.30;;;;;;4952595;28;20181;-87
2024/01/07 09:05:50;;;;;;;1.97;1.87;;;-2.00;97.30;;;;;;4953640;28;20209;-88
2024/01/07 09:08:16;;;;;;;1.73;1.63;;;-2.00;97.30;;;;;;4953674;28;20854;-88
2024/01/07 09:10:43;;;;;;;1.63;1.53;;;-2.00;97.30;;;;;;4953634;28;20681;-88
2024/01/07 09:13:09;;;;;;;1.20;1.10;;;-2.00;97.30;;;;;;4953473;28;20215;-87
2024/01/07 09:15:35;;;;;;;6.93;1.63;;;-1.90;97.30;;;;;;4953923;28;20423;-88
2024/01/07 09:18:00;;;;;;;1.30;1.20;;;-1.90;97.30;;;;;;4953071;28;20183;-88
2024/01/07 09:20:25;;;;;;;1.50;1.40;;;-1.90;97.30;;;;;;4953232;28;20198;-87
2024/01/07 09:22:51;;;;;;;1.30;1.20;;;-1.90;97.30;;;;;;4953639;28;20183;-88
2024/01/07 09:25:17;;;;;;;1.30;1.20;;;-1.90;97.30;;;;;;4952815;28;20213;-87
2024/01/07 09:27:43;;;;;;;1.97;1.87;;;-1.80;97.30;;;;;;4953858;28;20303;-88
2024/01/07 09:30:11;;;;;;;1.10;1.00;;;-1.80;97.30;;;;;;4952576;28;20203;-87
2024/01/07 09:32:37;;;;;;;1.20;1.10;;;-1.80;97.30;;;;;;4953952;28;20509;-88
2024/01/07 09:35:04;;;;;;;1.53;1.43;;;-1.80;97.30;;;;;;4952687;28;20474;-87
2024/01/07 09:37:31;;;;;;;1.40;1.30;;;-1.80;97.30;;;;;;4952999;28;20190;-88
2024/01/07 09:39:56;;;;;;;2.40;1.40;;;-1.80;97.30;;;;;;4952557;28;20434;-88
2024/01/07 09:42:22;;;;;;;1.00;0.90;;;-1.70;97.30;;;;;;4952424;28;20697;-87
2024/01/07 09:44:50;;;;;;;1.03;1.00;;;-1.60;97.30;;;;;;4952478;28;20203;-88
2024/01/07 09:47:16;;;;;;;1.20;1.10;;;-1.60;97.30;;;;;;4953299;28;20278;-87
2024/01/07 09:49:42;;;;;;;1.10;1.00;;;-1.60;97.30;;;;;;4952489;28;20505;-87
2024/01/07 09:52:10;;;;;;;2.80;2.03;;;-1.60;97.30;;;;;;4951850;28;20211;-88
2024/01/07 09:54:39;;;;;;;4.67;2.00;;;-1.70;97.30;;;;;;4954067;28;20501;-87
2024/01/07 09:57:06;;;;;;;1.40;1.30;;;-1.70;97.30;;;;;;4951836;29;21008;-88
2024/01/07 09:59:32;;;;;;;1.20;1.10;;;-1.70;97.30;;;;;;4952378;28;20431;-87
2024/01/07 10:01:58;;;;;;;1.10;1.00;;;-1.70;97.30;;;;;;4951738;28;20574;-87
2024/01/07 10:04:25;;;;;;;1.37;1.27;;;-1.70;97.30;;;;;;4953612;29;20561;-87
2024/01/07 10:06:52;;;;;;;1.10;1.00;;;-1.60;97.30;;;;;;4963883;28;20465;-88
2024/01/07 10:09:18;;;;;;;1.20;1.10;;;-1.60;97.30;;;;;;4951107;28;20501;-88
2024/01/07 10:11:44;;;;;;;1.10;1.00;;;-1.50;97.30;;;;;;4951503;28;21047;-87
2024/01/07 10:14:10;;;;;;;1.23;1.13;;;-1.50;97.30;;;;;;4952433;28;20430;-87
2024/01/07 10:16:36;;;;;;;1.93;1.83;;;-1.50;97.30;;;;;;4951689;29;20187;-87
2024/01/07 10:19:04;;;;;;;1.10;1.00;;;-1.50;97.30;;;;;;4952243;28;20187;-88
2024/01/07 10:21:29;;;;;;;9.33;1.20;;;-1.40;97.30;;;;;;4953780;28;20211;-88
2024/01/07 10:24:10;;;;;;;2.20;2.07;;;-1.40;97.30;;;;;;4973854;28;20430;-87
2024/01/07 10:26:37;;;;;;;1.33;1.23;;;-1.30;97.30;;;;;;4953098;28;20584;-87
2024/01/07 10:29:02;;;;;;;1.47;1.37;;;-1.30;97.30;;;;;;4951965;28;20427;-87
2024/01/07 10:31:29;;;;;;;1.33;1.30;;;-1.20;97.30;;;;;;4960161;28;20436;-87
2024/01/07 10:33:56;;;;;;;1.10;1.00;;;-1.30;97.30;;;;;;4967143;28;20269;-88
2024/01/07 10:36:22;;;;;;;1.20;1.10;;;-1.30;96.70;;;;;;4960143;28;20963;-87
2024/01/07 10:38:48;;;;;;;1.17;1.07;;;-1.30;96.30;;;;;;4960026;28;20414;-88
2024/01/07 10:41:16;;;;;;;1.13;1.03;;;-1.30;96.20;;;;;;4957012;28;20453;-87
2024/01/07 10:43:46;;;;;;;1.20;1.10;;;-1.20;96.20;;;;;;4949398;28;20179;-87
2024/01/07 10:46:13;;;;;;;1.10;1.00;;;-1.20;96.60;;;;;;4957867;28;20484;-88
2024/01/07 10:48:55;;;;;;;1.10;1.00;;;-1.20;96.70;;;;;;4967125;28;20771;-88
2024/01/07 10:51:21;;;;;;;1.33;1.23;;;-1.20;96.60;;;;;;4955262;28;20438;-87
2024/01/07 10:53:55;;;;;;;1.10;1.00;;;-1.30;96.30;;;;;;4951526;29;21006;-87
2024/01/07 10:56:24;;;;;;;1.10;1.00;;;-1.30;96.70;;;;;;4967577;28;20418;-87
2024/01/07 10:58:52;;;;;;;1.30;1.20;;;-1.30;96.60;;;;;;4961496;28;20434;-87
2024/01/07 11:01:19;;;;;;;1.10;1.00;;;-1.30;96.90;;;;;;4958943;28;20469;-88
2024/01/07 11:03:56;;;;;;;1.10;1.00;;;-1.30;97.30;;;;;;4951337;28;20414;-88
2024/01/07 11:06:41;;;;;;;1.40;1.30;;;-1.20;97.30;;;;;;4975453;28;20422;-88
2024/01/07 11:09:26;;;;;;;1.50;1.40;;;-1.20;97.30;;;;;;4966058;28;20489;-87
2024/01/07 11:11:52;;;;;;;1.20;1.10;;;-1.10;97.30;;;;;;4957638;28;20530;-87
2024/01/07 11:14:42;;;;;;;1.20;1.10;;;-1.10;97.30;;;;;;4965782;28;20505;-88
2024/01/07 11:17:13;;;;;;;1.23;1.13;;;-1.10;97.30;;;;;;4959003;28;20184;-87
2024/01/07 11:19:48;;;;;;;1.10;1.00;;;-1.00;97.30;;;;;;4955739;28;20450;-88
2024/01/07 11:22:24;;;;;;;1.60;1.50;;;-1.00;97.30;;;;;;4952523;28;20449;-87
2024/01/07 11:24:51;;;;;;;1.10;1.00;;;-1.00;97.30;;;;;;4954931;28;20464;-88
2024/01/07 11:27:17;;;;;;;1.20;1.10;;;-1.10;97.20;;;;;;4956697;28;20425;-88
2024/01/07 11:29:42;;;;;;;1.10;1.00;;;-1.10;97.30;;;;;;4952320;28;20427;-88
2024/01/07 11:32:11;;;;;;;1.27;1.17;;;-1.00;97.30;;;;;;4957841;28;20682;-87
2024/01/07 11:34:46;;;;;;;1.20;1.10;;;-1.00;97.30;;;;;;4953663;28;20182;-87
2024/01/07 11:37:15;;;;;;;1.50;1.40;;;-1.00;97.30;;;;;;4964445;28;20424;-88
2024/01/07 11:39:45;;;;;;;1.10;1.00;;;-1.00;97.30;;;;;;4967562;28;20429;-88
2024/01/07 11:42:14;;;;;;;1.27;1.17;;;-1.00;97.30;;;;;;4958255;28;20502;-87
2024/01/07 11:44:55;;;;;;;1.50;1.40;;;-1.00;97.30;;;;;;4955260;28;20470;-87
2024/01/07 11:47:22;;;;;;;1.30;1.20;;;-1.00;97.30;;;;;;4957552;28;20503;-87
2024/01/07 11:49:51;;;;;;;1.50;1.40;;;-1.00;97.30;;;;;;4946270;29;20481;-88
2024/01/07 11:52:17;;;;;;;1.40;1.30;;;-1.00;97.30;;;;;;4950255;28;20493;-89
2024/01/07 11:54:42;;;;;;;1.00;0.90;;;-1.00;97.30;;;;;;4950733;28;20426;-88
2024/01/07 11:57:09;;;;;;;1.30;1.20;;;-1.00;97.30;;;;;;4961288;28;20422;-89
2024/01/07 11:59:36;;;;;;;1.10;1.00;;;-1.10;97.30;;;;;;4959596;28;20190;-88
2024/01/07 12:02:04;;;;;;;1.00;0.90;;;-1.10;97.30;;;;;;4950270;28;20501;-88
2024/01/07 12:04:33;;;;;;;1.70;1.60;;;-1.10;97.30;;;;;;4953422;28;20791;-88
2024/01/07 12:06:59;;;;;;;1.10;1.00;;;-1.10;97.30;;;;;;4952552;28;20423;-87
2024/01/07 12:09:25;;;;;;;1.27;1.17;;;-1.00;97.30;;;;;;4954896;28;20514;-88
2024/01/07 12:11:51;;;;;;;1.20;1.10;;;-1.00;97.30;;;;;;4955221;28;20438;-88
2024/01/07 12:14:17;;;;;;;1.20;1.10;;;-0.90;97.30;;;;;;4955019;28;20521;-88
2024/01/07 12:16:43;;;;;;;1.00;0.90;;;-0.90;97.30;;;;;;4955052;28;20727;-88
2024/01/07 12:19:09;;;;;;;1.00;0.90;;;-1.00;97.30;;;;;;4960812;28;20476;-87
2024/01/07 12:21:35;;;;;;;1.20;1.10;;;-1.00;97.30;;;;;;4960899;28;20203;-87
2024/01/07 12:24:01;;;;;;;3.53;3.33;;;-1.00;97.30;;;;;;4956139;28;20501;-87
2024/01/07 12:26:27;;;;;;;1.10;1.00;;;-0.90;97.30;;;;;;4962679;28;20426;-88
2024/01/07 12:28:59;;;;;;;1.20;1.10;;;-0.90;97.30;;;;;;4961829;28;20178;-86
2024/01/07 12:31:26;;;;;;;1.10;1.00;;;-0.90;97.30;;;;;;4955138;28;20934;-88
2024/01/07 12:33:55;;;;;;;1.20;1.10;;;-0.90;97.30;;;;;;4961768;28;20472;-88
2024/01/07 12:36:22;;;;;;;1.10;1.00;;;-0.90;97.30;;;;;;4961226;28;20423;-88
2024/01/07 12:38:48;;;;;;;1.50;1.40;;;-0.90;97.30;;;;;;4957996;28;20423;-87
2024/01/07 12:41:13;;;;;;;1.10;1.00;;;-0.90;97.30;;;;;;4959622;28;20438;-87
2024/01/07 12:43:39;;;;;;;1.20;1.10;;;-0.90;97.30;;;;;;4954408;28;20274;-87
2024/01/07 12:46:05;;;;;;;1.27;1.17;;;-0.90;97.30;;;;;;4959484;28;20211;-87
2024/01/07 12:48:31;;;;;;;1.20;1.10;;;-0.90;97.30;;;;;;4959632;28;20211;-88
2024/01/07 12:50:57;;;;;;;1.70;1.60;;;-0.80;97.30;;;;;;4960206;28;20482;-87
2024/01/07 12:53:23;;;;;;;1.20;1.10;;;-0.80;97.30;;;;;;4961193;28;20422;-87
2024/01/07 12:55:48;;;;;;;1.10;1.00;;;-0.80;97.30;;;;;;4965360;28;20504;-88
2024/01/07 12:58:14;;;;;;;1.10;1.00;;;-0.80;97.30;;;;;;4953906;29;20281;-87
2024/01/07 13:00:40;;;;;;;2.37;2.17;;;-0.80;97.30;;;;;;4964566;28;20179;-88
2024/01/07 13:03:07;;;;;;;1.10;1.00;;;-0.70;97.30;;;;;;4968977;28;20209;-87
2024/01/07 13:05:33;;;;;;;1.80;1.70;;;-0.70;97.30;;;;;;4976327;28;20230;-88
2024/01/07 13:07:58;;;;;;;1.63;1.53;;;-0.60;97.30;;;;;;4969158;28;20430;-87
2024/01/07 13:10:24;;;;;;;1.00;0.90;;;-0.60;97.30;;;;;;4961065;28;20448;-87
2024/01/07 13:12:50;;;;;;;1.30;1.20;;;-0.60;97.30;;;;;;5018009;22;20235;-66
2024/01/07 13:15:16;;;;;;;1.80;1.60;;;-0.60;97.30;;;;;;4962461;28;20206;-66
2024/01/07 13:17:43;;;;;;;1.10;1.00;;;-0.70;97.30;;;;;;4978685;28;20492;-67
2024/01/07 13:20:11;;;;;;;1.20;1.10;;;-0.70;97.30;;;;;;4982975;28;20436;-66
2024/01/07 13:22:38;;;;;;;1.67;1.57;;;-0.70;97.30;;;;;;4972136;28;20418;-66
2024/01/07 13:25:04;;;;;;;1.30;1.20;;;-0.70;97.30;;;;;;4970679;28;20885;-66
2024/01/07 13:27:30;;;;;;;1.20;1.10;;;-0.70;97.30;;;;;;4972280;28;20426;-66
2024/01/07 13:29:55;;;;;;;1.10;1.00;;;-0.70;97.30;;;;;;4977955;28;20581;-66
2024/01/07 13:32:21;;;;;;;1.20;1.10;;;-0.70;97.30;;;;;;4979707;28;20586;-65
2024/01/07 13:34:47;;;;;;;1.30;1.20;;;-0.70;97.30;;;;;;4970624;28;20178;-66
2024/01/07 13:37:12;;;;;;;1.10;1.00;;;-0.70;97.30;;;;;;4979592;28;20185;-66
2024/01/07 13:39:38;;;;;;;1.10;1.00;;;-0.70;97.30;;;;;;4970577;28;20433;-66
2024/01/07 13:42:04;;;;;;;1.93;1.80;;;-0.60;97.30;;;;;;4971579;28;20704;-66
2024/01/07 13:44:30;;;;;;;1.77;1.67;;;-0.70;97.30;;;;;;4979725;28;20260;-66
2024/01/07 13:46:56;;;;;;;1.00;0.90;;;-0.70;97.30;;;;;;4977619;28;20437;-66
2024/01/07 13:49:21;;;;;;;1.30;1.20;;;-0.70;97.30;;;;;;4970782;28;20218;-66
2024/01/07 13:51:47;;;;;;;1.30;1.20;;;-0.80;97.30;;;;;;4970128;28;20202;-65
2024/01/07 13:54:14;;;;;;;1.40;1.30;;;-0.80;97.30;;;;;;4971708;28;20186;-65
2024/01/07 13:56:44;;;;;;;1.10;1.00;;;-0.80;97.30;;;;;;4971634;28;20178;-66
2024/01/07 13:59:10;;;;;;;1.40;1.30;;;-0.80;97.30;;;;;;4970057;28;20432;-66
2024/01/07 14:01:36;;;;;;;1.13;1.03;;;-0.80;97.30;;;;;;4970436;28;20907;-66
2024/01/07 14:04:02;;;;;;;1.30;1.20;;;-0.90;97.30;;;;;;4977829;28;20516;-66
2024/01/07 14:06:27;;;;;;;1.10;1.00;;;-0.90;97.30;;;;;;4973387;28;20516;-66
2024/01/07 14:08:53;;;;;;;1.10;1.00;;;-0.90;97.30;;;;;;4976025;28;20260;-66
2024/01/07 14:11:19;;;;;;;1.00;0.90;;;-0.90;97.30;;;;;;4973269;28;20203;-66
2024/01/07 14:13:46;;;;;;;1.10;1.00;;;-0.90;97.30;;;;;;4962739;28;20701;-66
2024/01/07 14:16:12;;;;;;;1.20;1.10;;;-0.90;97.30;;;;;;4971354;28;20764;-65
2024/01/07 14:18:37;;;;;;;1.00;0.90;;;-0.90;97.30;;;;;;4978424;28;20449;-66
2024/01/07 14:21:03;;;;;;;1.30;1.20;;;-0.90;97.30;;;;;;4974742;28;20955;-65
2024/01/07 14:23:31;;;;;;;6.93;1.47;;;-0.90;97.30;;;;;;4971044;28;20242;-66
2024/01/07 14:25:56;;;;;;;2.23;1.27;;;-0.90;97.30;;;;;;4971214;28;20618;-66
2024/01/07 14:28:22;;;;;;;1.10;1.00;;;-0.90;97.30;;;;;;4969975;28;20418;-66
2024/01/07 14:30:48;;;;;;;1.10;1.00;;;-0.90;97.30;;;;;;4971041;28;20195;-66
2024/01/07 14:33:14;;;;;;;1.10;1.00;;;-0.90;97.30;;;;;;4969757;28;20194;-66
2024/01/07 14:35:40;;;;;;;1.40;1.30;;;-0.90;97.30;;;;;;4977367;28;20433;-66
2024/01/07 14:38:05;;;;;;;1.20;1.10;;;-1.00;97.30;;;;;;4969702;28;20182;-66
2024/01/07 14:40:31;;;;;;;2.50;1.33;;;-0.90;97.30;;;;;;4969344;28;20214;-65
2024/01/07 14:42:59;;;;;;;1.17;1.07;;;-1.00;97.30;;;;;;4970722;28;20214;-66
2024/01/07 14:45:26;;;;;;;1.10;1.00;;;-0.90;97.30;;;;;;4978492;28;20206;-66
2024/01/07 14:47:52;;;;;;;1.47;1.37;;;-1.00;97.30;;;;;;4970726;28;20453;-66
2024/01/07 14:50:18;;;;;;;1.20;1.10;;;-1.00;97.30;;;;;;4973931;28;20862;-66
2024/01/07 14:52:44;;;;;;;5.53;1.63;;;-1.00;97.30;;;;;;4973807;28;20417;-66
2024/01/07 14:55:09;;;;;;;1.40;1.30;;;-1.00;97.30;;;;;;4983329;28;20813;-66
2024/01/07 14:57:35;;;;;;;1.20;1.10;;;-1.00;97.30;;;;;;4978442;28;20539;-66
2024/01/07 15:00:00;;;;;;;1.00;0.90;;;-1.10;97.30;;;;;;4973983;28;20362;-66
2024/01/07 15:02:26;;;;;;;1.10;1.00;;;-1.00;97.30;;;;;;4972545;28;20293;-66
2024/01/07 15:04:54;;;;;;;1.30;1.20;;;-1.00;97.30;;;;;;4968748;28;20742;-66
2024/01/07 15:07:20;;;;;;;1.10;1.00;;;-1.00;97.30;;;;;;4977335;28;20175;-66
2024/01/07 15:09:45;;;;;;;1.00;0.90;;;-1.00;97.30;;;;;;4970063;28;20482;-66
2024/01/07 15:12:11;;;;;;;1.37;1.27;;;-1.00;97.30;;;;;;4970769;28;20992;-66
2024/01/07 15:14:37;;;;;;;2.23;2.03;;;-1.10;97.30;;;;;;4976655;28;20677;-66
2024/01/07 15:17:03;;;;;;;1.20;1.10;;;-1.10;97.30;;;;;;4978386;28;20186;-66
2024/01/07 15:19:29;;;;;;;1.73;1.63;;;-1.10;97.30;;;;;;4968884;28;20185;-66
2024/01/07 15:21:55;;;;;;;1.10;1.00;;;-1.10;97.30;;;;;;4969265;28;20953;-66
2024/01/07 15:24:21;;;;;;;1.30;1.20;;;-1.10;97.30;;;;;;4969043;28;20512;-66
2024/01/07 15:26:46;;;;;;;1.10;1.00;;;-1.10;97.30;;;;;;4978178;28;20458;-66
2024/01/07 15:29:12;;;;;;;2.90;1.63;;;-1.10;97.30;;;;;;4976804;28;20182;-66
2024/01/07 15:31:38;;;;;;;1.57;1.47;;;-1.10;97.30;;;;;;4978126;28;20272;-66
2024/01/07 15:34:03;;;;;;;1.10;1.00;;;-1.10;97.30;;;;;;4973063;28;20260;-66
2024/01/07 15:36:28;;;;;;;1.30;1.20;;;-1.10;97.30;;;;;;4980972;28;20182;-65
2024/01/07 15:38:54;;;;;;;1.40;1.30;;;-1.10;97.30;;;;;;4986263;28;20178;-66
2024/01/07 15:41:20;;;;;;;1.20;1.10;;;-1.10;97.30;;;;;;4981881;28;20198;-66
2024/01/07 15:43:46;;;;;;;1.20;1.10;;;-1.10;97.30;;;;;;4969702;28;20189;-64
2024/01/07 15:46:11;;;;;;;1.33;1.30;;;-1.10;97.30;;;;;;4968436;28;21067;-66
2024/01/07 15:48:37;;;;;;;1.30;1.20;;;-1.20;97.30;;;;;;4966877;28;20659;-65
2024/01/07 15:51:03;;;;;;;1.40;1.30;;;-1.20;97.30;;;;;;4974572;28;20217;-66
2024/01/07 15:53:32;;;;;;;1.27;1.17;;;-1.20;97.30;;;;;;4972842;28;20175;-65
2024/01/07 15:56:06;;;;;;;3.63;1.93;;;-1.20;97.30;;;;;;4969906;28;20422;-65
2024/01/07 15:58:33;;;;;;;1.87;1.77;;;-1.20;97.30;;;;;;4976647;28;20488;-65
2024/01/07 16:01:00;;;;;;;1.20;1.10;;;-1.20;97.30;;;;;;4968397;28;20803;-65
2024/01/07 16:03:28;;;;;;;1.00;0.90;;;-1.20;97.30;;;;;;4976708;28;20433;-66
2024/01/07 16:05:53;;;;;;;1.10;1.00;;;-1.20;97.30;;;;;;4959068;28;20759;-65
2024/01/07 16:08:25;;;;;;;1.40;1.30;;;-1.20;97.30;;;;;;4968376;28;20425;-66
2024/01/07 16:10:51;;;;;;;1.20;1.10;;;-1.20;97.30;;;;;;4977466;28;20194;-66
2024/01/07 16:13:17;;;;;;;1.53;1.43;;;-1.20;97.30;;;;;;4970426;28;20828;-66
2024/01/07 16:15:42;;;;;;;1.63;1.53;;;-1.30;97.30;;;;;;4971919;28;20179;-66
2024/01/07 16:18:08;;;;;;;1.20;1.10;;;-1.30;97.30;;;;;;4973393;28;20249;-66
2024/01/07 16:20:33;;;;;;;1.20;1.10;;;-1.30;97.30;;;;;;4979785;28;20206;-65
2024/01/07 16:23:00;;;;;;;1.90;1.57;;;-1.30;97.30;;;;;;4973385;28;20210;-66
2024/01/07 16:25:26;;;;;;;1.40;1.30;;;-1.30;97.30;;;;;;4979710;28;20216;-65
2024/01/07 16:27:51;;;;;;;2.30;1.40;;;-1.20;97.30;;;;;;4972085;28;20418;-65
2024/01/07 16:30:17;;;;;;;1.23;1.13;;;-1.20;97.30;;;;;;4986091;28;20653;-65
2024/01/07 16:32:44;;;;;;;2.63;2.43;;;-1.20;97.30;;;;;;4974553;28;20186;-65
2024/01/07 16:35:11;;;;;;;1.70;1.60;;;-1.20;97.30;;;;;;4979689;28;20221;-65
2024/01/07 16:37:36;;;;;;;1.83;1.73;;;-1.20;97.30;;;;;;4973870;28;20424;-65
2024/01/07 16:40:02;;;;;;;1.10;1.00;;;-1.20;97.30;;;;;;4983247;28;20429;-65
2024/01/07 16:42:28;;;;;;;2.20;1.40;;;-1.20;97.30;;;;;;4984058;28;20206;-65
2024/01/07 16:44:54;;;;;;;1.10;1.00;;;-1.20;97.30;;;;;;4971553;28;20859;-67
2024/01/07 16:47:19;;;;;;;1.13;1.03;;;-1.20;97.30;;;;;;4972849;28;20179;-67
2024/01/07 16:49:44;;;;;;;1.20;1.10;;;-1.20;97.30;;;;;;4980774;28;20182;-65
2024/01/07 16:52:11;;;;;;;1.00;0.90;;;-1.30;97.30;;;;;;4977371;28;20206;-65
2024/01/07 16:54:37;;;;;;;1.13;1.03;;;-1.30;97.30;;;;;;4971873;28;20269;-65
2024/01/07 16:57:02;;;;;;;1.53;1.43;;;-1.30;97.30;;;;;;4971501;28;20850;-65
2024/01/07 16:59:28;;;;;;;1.30;1.20;;;-1.20;97.30;;;;;;4970075;28;20665;-65
2024/01/07 17:01:54;;;;;;;4.87;2.17;;;-1.20;97.30;;;;;;4969717;28;20533;-65
2024/01/07 17:04:20;;;;;;;19.30;2.40;;;-1.20;97.30;;;;;;4972469;28;20449;-65
2024/01/07 17:06:46;;;;;;;1.10;1.00;;;-1.20;97.30;;;;;;4976852;28;20187;-65
2024/01/07 17:09:13;;;;;;;1.20;1.10;;;-1.20;97.30;;;;;;4971036;28;20437;-65
2024/01/07 17:11:40;;;;;;;1.17;1.07;;;-1.20;97.30;;;;;;4972292;28;20336;-65
2024/01/07 17:14:06;;;;;;;1.10;1.00;;;-1.20;97.30;;;;;;4970739;28;20885;-65
2024/01/07 17:16:34;;;;;;;1.00;0.90;;;-1.20;97.30;;;;;;4970655;28;20434;-66
2024/01/07 17:18:59;;;;;;;2.13;1.97;;;-1.20;97.30;;;;;;4972246;28;20186;-65
2024/01/07 17:21:25;;;;;;;1.10;1.00;;;-1.10;97.30;;;;;;4970659;28;20450;-65
2024/01/07 17:23:51;;;;;;;1.00;0.90;;;-1.10;97.30;;;;;;4972570;28;20269;-65
2024/01/07 17:26:21;;;;;;;1.80;1.70;;;-1.10;97.30;;;;;;4969839;28;20697;-66
2024/01/07 17:28:47;;;;;;;1.00;0.90;;;-1.10;97.30;;;;;;4972084;28;20504;-65
2024/01/07 17:31:13;;;;;;;1.00;0.90;;;-1.10;97.30;;;;;;4971702;28;20477;-65
2024/01/07 17:33:39;;;;;;;1.00;0.90;;;-1.10;97.30;;;;;;4975012;28;20516;-65
2024/01/07 17:36:05;;;;;;;1.20;1.10;;;-1.00;97.30;;;;;;4971550;28;20913;-65
2024/01/07 17:38:31;;;;;;;1.17;1.07;;;-1.00;97.30;;;;;;4970363;28;20457;-65
2024/01/07 17:40:56;;;;;;;1.47;1.37;;;-1.00;97.30;;;;;;4970314;28;20532;-65
2024/01/07 17:43:22;;;;;;;1.30;1.20;;;-1.00;97.30;;;;;;4970539;28;20677;-65
2024/01/07 17:45:48;;;;;;;2.37;1.20;;;-1.00;97.30;;;;;;4973434;28;20490;-64